sensor_id;sensor_type;location;lat;lon;timestamp;temperature;humidity
58519;DHT22;44310;48.106;12.008;2023-06-19T00:01:14;20.60;73.80
58519;DHT22;44310;48.106;12.008;2023-06-19T00:03:41;20.60;74.50
58519;DHT22;44310;48.106;12.008;2023-06-19T00:06:08;20.60;73.80
58519;DHT22;44310;48.106;12.008;2023-06-19T00:08:36;20.60;73.80
58519;DHT22;44310;48.106;12.008;2023-06-19T00:11:03;20.60;73.80
58519;DHT22;44310;48.106;12.008;2023-06-19T00:13:30;20.50;73.70
58519;DHT22;44310;48.106;12.008;2023-06-19T00:15:57;20.50;73.60
58519;DHT22;44310;48.106;12.008;2023-06-19T00:18:30;20.50;73.60
58519;DHT22;44310;48.106;12.008;2023-06-19T00:20:57;20.80;73.80
58519;DHT22;44310;48.106;12.008;2023-06-19T00:23:25;20.60;73.70
58519;DHT22;44310;48.106;12.008;2023-06-19T00:25:52;20.60;73.60
58519;DHT22;44310;48.106;12.008;2023-06-19T00:28:19;20.60;73.80
58519;DHT22;44310;48.106;12.008;2023-06-19T00:30:48;20.60;73.80
58519;DHT22;44310;48.106;12.008;2023-06-19T00:33:15;20.60;73.80
58519;DHT22;44310;48.106;12.008;2023-06-19T00:35:42;20.50;73.60
58519;DHT22;44310;48.106;12.008;2023-06-19T00:38:10;20.60;73.80
58519;DHT22;44310;48.106;12.008;2023-06-19T00:40:38;20.60;73.90
58519;DHT22;44310;48.106;12.008;2023-06-19T00:43:06;20.50;74.00
58519;DHT22;44310;48.106;12.008;2023-06-19T00:45:33;20.50;74.50
58519;DHT22;44310;48.106;12.008;2023-06-19T00:48:01;20.50;73.80
58519;DHT22;44310;48.106;12.008;2023-06-19T00:50:29;20.50;73.70
58519;DHT22;44310;48.106;12.008;2023-06-19T00:52:58;20.50;73.80
58519;DHT22;44310;48.106;12.008;2023-06-19T00:55:28;20.50;73.80
58519;DHT22;44310;48.106;12.008;2023-06-19T00:57:56;20.50;73.90
58519;DHT22;44310;48.106;12.008;2023-06-19T01:00:24;20.50;73.90
58519;DHT22;44310;48.106;12.008;2023-06-19T01:02:52;20.80;74.20
58519;DHT22;44310;48.106;12.008;2023-06-19T01:05:19;20.40;74.10
58519;DHT22;44310;48.106;12.008;2023-06-19T01:08:12;20.60;74.70
58519;DHT22;44310;48.106;12.008;2023-06-19T01:10:47;20.60;75.30
58519;DHT22;44310;48.106;12.008;2023-06-19T01:16:08;20.60;75.10
58519;DHT22;44310;48.106;12.008;2023-06-19T01:18:36;20.60;75.20
58519;DHT22;44310;48.106;12.008;2023-06-19T01:21:14;20.60;75.20
58519;DHT22;44310;48.106;12.008;2023-06-19T01:23:42;20.60;75.10
58519;DHT22;44310;48.106;12.008;2023-06-19T01:26:11;20.60;75.00
58519;DHT22;44310;48.106;12.008;2023-06-19T01:28:40;20.60;74.90
58519;DHT22;44310;48.106;12.008;2023-06-19T01:31:25;20.60;74.80
58519;DHT22;44310;48.106;12.008;2023-06-19T01:33:54;20.60;74.90
58519;DHT22;44310;48.106;12.008;2023-06-19T01:36:23;20.60;75.60
58519;DHT22;44310;48.106;12.008;2023-06-19T01:38:52;20.60;74.80
58519;DHT22;44310;48.106;12.008;2023-06-19T01:41:22;20.60;74.70
58519;DHT22;44310;48.106;12.008;2023-06-19T01:43:51;20.60;74.80
58519;DHT22;44310;48.106;12.008;2023-06-19T01:46:18;20.60;74.90
58519;DHT22;44310;48.106;12.008;2023-06-19T01:48:46;20.60;74.80
58519;DHT22;44310;48.106;12.008;2023-06-19T01:51:13;20.60;74.70
58519;DHT22;44310;48.106;12.008;2023-06-19T01:53:40;20.60;75.00
58519;DHT22;44310;48.106;12.008;2023-06-19T01:56:08;20.60;75.00
58519;DHT22;44310;48.106;12.008;2023-06-19T01:58:35;20.60;75.30
58519;DHT22;44310;48.106;12.008;2023-06-19T02:01:02;20.70;75.20
58519;DHT22;44310;48.106;12.008;2023-06-19T02:03:29;20.30;75.00
58519;DHT22;44310;48.106;12.008;2023-06-19T02:05:57;20.60;75.10
58519;DHT22;44310;48.106;12.008;2023-06-19T02:08:24;20.60;75.20
58519;DHT22;44310;48.106;12.008;2023-06-19T02:10:51;20.60;75.10
58519;DHT22;44310;48.106;12.008;2023-06-19T02:13:18;20.50;75.10
58519;DHT22;44310;48.106;12.008;2023-06-19T02:15:45;20.50;75.20
58519;DHT22;44310;48.106;12.008;2023-06-19T02:18:12;20.50;75.20
58519;DHT22;44310;48.106;12.008;2023-06-19T02:20:39;20.50;75.20
58519;DHT22;44310;48.106;12.008;2023-06-19T02:23:07;20.50;75.10
58519;DHT22;44310;48.106;12.008;2023-06-19T02:25:34;20.50;74.80
58519;DHT22;44310;48.106;12.008;2023-06-19T02:28:02;21.20;75.20
58519;DHT22;44310;48.106;12.008;2023-06-19T02:30:30;20.20;74.70
58519;DHT22;44310;48.106;12.008;2023-06-19T02:32:57;20.50;75.00
58519;DHT22;44310;48.106;12.008;2023-06-19T02:35:25;20.60;75.70
58519;DHT22;44310;48.106;12.008;2023-06-19T02:37:52;20.60;76.20
58519;DHT22;44310;48.106;12.008;2023-06-19T02:40:19;20.90;76.40
58519;DHT22;44310;48.106;12.008;2023-06-19T02:42:47;20.70;76.20
58519;DHT22;44310;48.106;12.008;2023-06-19T02:45:14;20.70;76.20
58519;DHT22;44310;48.106;12.008;2023-06-19T02:47:42;20.60;76.00
58519;DHT22;44310;48.106;12.008;2023-06-19T02:50:09;20.70;76.30
58519;DHT22;44310;48.106;12.008;2023-06-19T02:52:36;20.70;76.70
58519;DHT22;44310;48.106;12.008;2023-06-19T02:55:04;20.70;76.80
58519;DHT22;44310;48.106;12.008;2023-06-19T02:57:31;20.70;76.80
58519;DHT22;44310;48.106;12.008;2023-06-19T02:59:58;20.70;76.70
58519;DHT22;44310;48.106;12.008;2023-06-19T03:02:25;20.60;76.40
58519;DHT22;44310;48.106;12.008;2023-06-19T03:04:52;20.60;76.30
58519;DHT22;44310;48.106;12.008;2023-06-19T03:07:20;20.70;76.40
58519;DHT22;44310;48.106;12.008;2023-06-19T03:09:47;20.60;76.40
58519;DHT22;44310;48.106;12.008;2023-06-19T03:12:14;20.50;76.40
58519;DHT22;44310;48.106;12.008;2023-06-19T03:14:41;20.50;76.30
58519;DHT22;44310;48.106;12.008;2023-06-19T03:17:08;20.50;76.30
58519;DHT22;44310;48.106;12.008;2023-06-19T03:19:35;20.50;76.30
58519;DHT22;44310;48.106;12.008;2023-06-19T03:22:02;20.40;76.40
58519;DHT22;44310;48.106;12.008;2023-06-19T03:24:30;20.50;76.30
58519;DHT22;44310;48.106;12.008;2023-06-19T03:26:57;20.50;76.30
58519;DHT22;44310;48.106;12.008;2023-06-19T03:29:24;20.50;76.30
58519;DHT22;44310;48.106;12.008;2023-06-19T03:31:51;20.50;76.20
58519;DHT22;44310;48.106;12.008;2023-06-19T03:34:18;20.50;76.20
58519;DHT22;44310;48.106;12.008;2023-06-19T03:36:46;20.50;77.20
58519;DHT22;44310;48.106;12.008;2023-06-19T03:39:13;20.60;77.00
58519;DHT22;44310;48.106;12.008;2023-06-19T03:41:40;20.60;77.00
58519;DHT22;44310;48.106;12.008;2023-06-19T03:44:08;20.70;76.80
58519;DHT22;44310;48.106;12.008;2023-06-19T03:46:35;21.00;76.90
58519;DHT22;44310;48.106;12.008;2023-06-19T03:49:02;20.70;77.30
58519;DHT22;44310;48.106;12.008;2023-06-19T03:51:32;20.60;76.60
58519;DHT22;44310;48.106;12.008;2023-06-19T03:53:59;20.60;76.40
58519;DHT22;44310;48.106;12.008;2023-06-19T03:56:26;20.60;76.30
58519;DHT22;44310;48.106;12.008;2023-06-19T03:58:54;21.10;76.60
58519;DHT22;44310;48.106;12.008;2023-06-19T04:01:21;20.60;76.30
58519;DHT22;44310;48.106;12.008;2023-06-19T04:03:48;20.60;76.20
58519;DHT22;44310;48.106;12.008;2023-06-19T04:06:15;20.60;76.10
58519;DHT22;44310;48.106;12.008;2023-06-19T04:08:42;20.90;76.10
58519;DHT22;44310;48.106;12.008;2023-06-19T04:11:09;20.40;75.80
58519;DHT22;44310;48.106;12.008;2023-06-19T04:13:37;20.60;75.80
58519;DHT22;44310;48.106;12.008;2023-06-19T04:16:04;20.60;75.80
58519;DHT22;44310;48.106;12.008;2023-06-19T04:18:31;20.60;76.00
58519;DHT22;44310;48.106;12.008;2023-06-19T04:20:58;20.90;76.10
58519;DHT22;44310;48.106;12.008;2023-06-19T04:23:25;20.50;75.90
58519;DHT22;44310;48.106;12.008;2023-06-19T04:25:52;20.60;76.00
58519;DHT22;44310;48.106;12.008;2023-06-19T04:28:19;19.80;76.00
58519;DHT22;44310;48.106;12.008;2023-06-19T04:30:47;20.80;77.00
58519;DHT22;44310;48.106;12.008;2023-06-19T04:33:14;20.60;77.10
58519;DHT22;44310;48.106;12.008;2023-06-19T04:35:41;20.70;77.50
58519;DHT22;44310;48.106;12.008;2023-06-19T04:38:09;20.70;77.50
58519;DHT22;44310;48.106;12.008;2023-06-19T04:40:36;20.70;77.50
58519;DHT22;44310;48.106;12.008;2023-06-19T04:43:03;20.70;77.60
58519;DHT22;44310;48.106;12.008;2023-06-19T04:45:32;20.70;77.70
58519;DHT22;44310;48.106;12.008;2023-06-19T04:48:00;20.70;77.60
58519;DHT22;44310;48.106;12.008;2023-06-19T04:50:30;20.70;77.60
58519;DHT22;44310;48.106;12.008;2023-06-19T04:52:57;20.70;77.70
58519;DHT22;44310;48.106;12.008;2023-06-19T04:55:24;20.70;77.90
58519;DHT22;44310;48.106;12.008;2023-06-19T04:57:52;20.70;77.90
58519;DHT22;44310;48.106;12.008;2023-06-19T05:00:20;20.70;78.00
58519;DHT22;44310;48.106;12.008;2023-06-19T05:02:50;20.60;77.90
58519;DHT22;44310;48.106;12.008;2023-06-19T05:05:17;20.00;77.50
58519;DHT22;44310;48.106;12.008;2023-06-19T05:07:49;20.70;77.90
58519;DHT22;44310;48.106;12.008;2023-06-19T05:10:16;20.60;77.70
58519;DHT22;44310;48.106;12.008;2023-06-19T05:12:43;20.60;77.70
58519;DHT22;44310;48.106;12.008;2023-06-19T05:15:11;20.60;77.70
58519;DHT22;44310;48.106;12.008;2023-06-19T05:17:38;20.70;77.80
58519;DHT22;44310;48.106;12.008;2023-06-19T05:20:06;20.70;77.70
58519;DHT22;44310;48.106;12.008;2023-06-19T05:22:36;20.70;77.70
58519;DHT22;44310;48.106;12.008;2023-06-19T05:25:04;20.70;77.70
58519;DHT22;44310;48.106;12.008;2023-06-19T05:27:31;20.70;77.70
58519;DHT22;44310;48.106;12.008;2023-06-19T05:29:58;20.70;77.60
58519;DHT22;44310;48.106;12.008;2023-06-19T05:32:26;20.70;77.60
58519;DHT22;44310;48.106;12.008;2023-06-19T05:34:53;20.60;77.70
58519;DHT22;44310;48.106;12.008;2023-06-19T05:37:20;20.70;77.80
58519;DHT22;44310;48.106;12.008;2023-06-19T05:39:49;20.80;77.90
58519;DHT22;44310;48.106;12.008;2023-06-19T05:42:16;20.70;78.00
58519;DHT22;44310;48.106;12.008;2023-06-19T05:44:43;20.70;78.40
58519;DHT22;44310;48.106;12.008;2023-06-19T05:47:11;20.70;78.50
58519;DHT22;44310;48.106;12.008;2023-06-19T05:49:38;20.70;78.70
58519;DHT22;44310;48.106;12.008;2023-06-19T05:52:08;20.70;78.90
58519;DHT22;44310;48.106;12.008;2023-06-19T05:54:35;20.70;79.10
58519;DHT22;44310;48.106;12.008;2023-06-19T05:57:02;20.80;79.40
58519;DHT22;44310;48.106;12.008;2023-06-19T05:59:29;20.80;79.40
58519;DHT22;44310;48.106;12.008;2023-06-19T06:01:56;20.70;79.50
58519;DHT22;44310;48.106;12.008;2023-06-19T06:04:24;20.80;79.60
58519;DHT22;44310;48.106;12.008;2023-06-19T06:06:51;20.70;79.70
58519;DHT22;44310;48.106;12.008;2023-06-19T06:09:18;20.80;79.80
58519;DHT22;44310;48.106;12.008;2023-06-19T06:11:45;20.70;79.70
58519;DHT22;44310;48.106;12.008;2023-06-19T06:14:12;20.70;79.70
58519;DHT22;44310;48.106;12.008;2023-06-19T06:16:39;20.70;80.40
58519;DHT22;44310;48.106;12.008;2023-06-19T06:19:07;20.70;79.70
58519;DHT22;44310;48.106;12.008;2023-06-19T06:21:34;20.70;79.70
58519;DHT22;44310;48.106;12.008;2023-06-19T06:24:02;20.70;79.70
58519;DHT22;44310;48.106;12.008;2023-06-19T06:26:29;20.70;80.30
58519;DHT22;44310;48.106;12.008;2023-06-19T06:28:56;20.70;80.40
58519;DHT22;44310;48.106;12.008;2023-06-19T06:31:24;20.70;80.20
58519;DHT22;44310;48.106;12.008;2023-06-19T06:33:51;20.80;80.10
58519;DHT22;44310;48.106;12.008;2023-06-19T06:36:18;20.70;80.00
58519;DHT22;44310;48.106;12.008;2023-06-19T06:39:01;20.70;79.80
58519;DHT22;44310;48.106;12.008;2023-06-19T06:41:29;20.70;79.70
58519;DHT22;44310;48.106;12.008;2023-06-19T06:43:56;20.80;79.50
58519;DHT22;44310;48.106;12.008;2023-06-19T06:46:23;20.80;79.80
58519;DHT22;44310;48.106;12.008;2023-06-19T06:48:51;20.70;79.70
58519;DHT22;44310;48.106;12.008;2023-06-19T06:51:18;20.70;79.70
58519;DHT22;44310;48.106;12.008;2023-06-19T06:53:45;20.70;80.20
58519;DHT22;44310;48.106;12.008;2023-06-19T06:56:14;20.70;79.70
58519;DHT22;44310;48.106;12.008;2023-06-19T06:58:41;20.70;79.90
58519;DHT22;44310;48.106;12.008;2023-06-19T07:01:08;20.70;80.30
58519;DHT22;44310;48.106;12.008;2023-06-19T07:03:35;20.80;80.60
58519;DHT22;44310;48.106;12.008;2023-06-19T07:06:03;20.80;80.50
58519;DHT22;44310;48.106;12.008;2023-06-19T07:08:31;20.80;80.70
58519;DHT22;44310;48.106;12.008;2023-06-19T07:10:58;20.80;80.80
58519;DHT22;44310;48.106;12.008;2023-06-19T07:13:25;20.80;81.10
58519;DHT22;44310;48.106;12.008;2023-06-19T07:15:52;20.80;81.00
58519;DHT22;44310;48.106;12.008;2023-06-19T07:18:20;20.80;81.10
58519;DHT22;44310;48.106;12.008;2023-06-19T07:20:47;20.90;81.20
58519;DHT22;44310;48.106;12.008;2023-06-19T07:23:14;20.80;81.00
58519;DHT22;44310;48.106;12.008;2023-06-19T07:25:41;20.80;81.30
58519;DHT22;44310;48.106;12.008;2023-06-19T07:28:08;20.80;81.30
58519;DHT22;44310;48.106;12.008;2023-06-19T07:30:35;20.80;81.30
58519;DHT22;44310;48.106;12.008;2023-06-19T07:33:02;20.80;81.30
58519;DHT22;44310;48.106;12.008;2023-06-19T07:35:30;20.80;81.30
58519;DHT22;44310;48.106;12.008;2023-06-19T07:37:57;20.80;81.20
58519;DHT22;44310;48.106;12.008;2023-06-19T07:40:24;20.80;81.10
58519;DHT22;44310;48.106;12.008;2023-06-19T07:42:52;20.80;81.30
58519;DHT22;44310;48.106;12.008;2023-06-19T07:45:19;20.80;81.20
58519;DHT22;44310;48.106;12.008;2023-06-19T07:47:54;20.80;81.30
58519;DHT22;44310;48.106;12.008;2023-06-19T07:50:22;20.90;81.40
58519;DHT22;44310;48.106;12.008;2023-06-19T07:52:53;20.80;81.10
58519;DHT22;44310;48.106;12.008;2023-06-19T07:55:20;21.40;81.50
58519;DHT22;44310;48.106;12.008;2023-06-19T07:57:47;20.80;81.30
58519;DHT22;44310;48.106;12.008;2023-06-19T08:00:15;20.80;81.20
58519;DHT22;44310;48.106;12.008;2023-06-19T08:02:42;20.80;81.20
58519;DHT22;44310;48.106;12.008;2023-06-19T08:05:10;20.80;81.20
58519;DHT22;44310;48.106;12.008;2023-06-19T08:07:37;20.90;81.30
58519;DHT22;44310;48.106;12.008;2023-06-19T08:10:05;20.90;81.20
58519;DHT22;44310;48.106;12.008;2023-06-19T08:12:53;20.80;81.10
58519;DHT22;44310;48.106;12.008;2023-06-19T08:15:20;20.80;81.20
58519;DHT22;44310;48.106;12.008;2023-06-19T08:17:47;20.80;81.20
58519;DHT22;44310;48.106;12.008;2023-06-19T08:20:15;20.90;81.20
58519;DHT22;44310;48.106;12.008;2023-06-19T08:22:42;20.80;81.10
58519;DHT22;44310;48.106;12.008;2023-06-19T08:25:10;20.90;81.40
58519;DHT22;44310;48.106;12.008;2023-06-19T08:27:37;20.90;81.70
58519;DHT22;44310;48.106;12.008;2023-06-19T08:30:05;20.90;81.80
58519;DHT22;44310;48.106;12.008;2023-06-19T08:32:32;20.90;81.90
58519;DHT22;44310;48.106;12.008;2023-06-19T08:35:01;20.90;82.00
58519;DHT22;44310;48.106;12.008;2023-06-19T08:37:29;20.90;82.00
58519;DHT22;44310;48.106;12.008;2023-06-19T08:39:57;20.90;81.90
58519;DHT22;44310;48.106;12.008;2023-06-19T08:42:24;20.90;80.30
58519;DHT22;44310;48.106;12.008;2023-06-19T08:44:51;20.70;79.70
58519;DHT22;44310;48.106;12.008;2023-06-19T08:47:18;20.80;80.00
58519;DHT22;44310;48.106;12.008;2023-06-19T08:49:45;20.90;80.80
58519;DHT22;44310;48.106;12.008;2023-06-19T08:52:13;20.90;80.20
58519;DHT22;44310;48.106;12.008;2023-06-19T08:54:40;20.90;80.30
58519;DHT22;44310;48.106;12.008;2023-06-19T08:57:11;20.90;80.70
58519;DHT22;44310;48.106;12.008;2023-06-19T08:59:39;20.90;81.40
58519;DHT22;44310;48.106;12.008;2023-06-19T09:02:08;21.00;80.80
58519;DHT22;44310;48.106;12.008;2023-06-19T09:04:35;20.80;79.00
58519;DHT22;44310;48.106;12.008;2023-06-19T09:07:03;20.90;76.70
58519;DHT22;44310;48.106;12.008;2023-06-19T09:09:31;21.10;76.20
58519;DHT22;44310;48.106;12.008;2023-06-19T09:12:07;21.20;75.50
58519;DHT22;44310;48.106;12.008;2023-06-19T09:14:39;21.20;74.70
58519;DHT22;44310;48.106;12.008;2023-06-19T09:17:11;21.30;75.30
58519;DHT22;44310;48.106;12.008;2023-06-19T09:19:47;21.30;75.90
58519;DHT22;44310;48.106;12.008;2023-06-19T09:22:16;21.30;76.20
58519;DHT22;44310;48.106;12.008;2023-06-19T09:24:45;21.40;75.10
58519;DHT22;44310;48.106;12.008;2023-06-19T09:27:15;21.40;75.90
58519;DHT22;44310;48.106;12.008;2023-06-19T09:29:49;21.30;76.40
58519;DHT22;44310;48.106;12.008;2023-06-19T09:32:21;21.40;76.60
58519;DHT22;44310;48.106;12.008;2023-06-19T09:34:50;21.30;76.30
58519;DHT22;44310;48.106;12.008;2023-06-19T09:37:26;21.50;76.40
58519;DHT22;44310;48.106;12.008;2023-06-19T09:39:59;21.10;76.40
58519;DHT22;44310;48.106;12.008;2023-06-19T09:42:30;21.10;76.30
58519;DHT22;44310;48.106;12.008;2023-06-19T09:45:02;21.00;75.80
58519;DHT22;44310;48.106;12.008;2023-06-19T09:47:45;20.90;76.00
58519;DHT22;44310;48.106;12.008;2023-06-19T09:50:16;21.00;75.70
58519;DHT22;44310;48.106;12.008;2023-06-19T09:52:45;21.00;75.60
58519;DHT22;44310;48.106;12.008;2023-06-19T09:55:12;20.90;75.80
58519;DHT22;44310;48.106;12.008;2023-06-19T09:57:41;20.90;75.90
58519;DHT22;44310;48.106;12.008;2023-06-19T10:00:09;20.90;76.10
58519;DHT22;44310;48.106;12.008;2023-06-19T10:02:44;20.90;76.30
58519;DHT22;44310;48.106;12.008;2023-06-19T10:05:12;21.00;76.50
58519;DHT22;44310;48.106;12.008;2023-06-19T10:07:44;21.00;76.70
58519;DHT22;44310;48.106;12.008;2023-06-19T10:10:22;20.90;76.70
58519;DHT22;44310;48.106;12.008;2023-06-19T10:12:52;20.90;77.00
58519;DHT22;44310;48.106;12.008;2023-06-19T10:15:23;20.90;77.30
58519;DHT22;44310;48.106;12.008;2023-06-19T10:18:02;20.90;77.60
58519;DHT22;44310;48.106;12.008;2023-06-19T10:20:37;20.90;77.60
58519;DHT22;44310;48.106;12.008;2023-06-19T10:23:18;20.90;77.80
58519;DHT22;44310;48.106;12.008;2023-06-19T10:25:54;20.90;78.10
58519;DHT22;44310;48.106;12.008;2023-06-19T10:30:57;20.90;77.50
58519;DHT22;44310;48.106;12.008;2023-06-19T10:33:30;21.00;77.60
58519;DHT22;44310;48.106;12.008;2023-06-19T10:36:00;20.40;77.30
58519;DHT22;44310;48.106;12.008;2023-06-19T10:38:28;21.00;77.70
58519;DHT22;44310;48.106;12.008;2023-06-19T10:40:56;21.00;77.80
58519;DHT22;44310;48.106;12.008;2023-06-19T10:43:24;21.00;78.00
58519;DHT22;44310;48.106;12.008;2023-06-19T10:45:55;21.00;78.10
58519;DHT22;44310;48.106;12.008;2023-06-19T10:48:23;20.90;78.20
58519;DHT22;44310;48.106;12.008;2023-06-19T10:50:51;21.00;78.60
58519;DHT22;44310;48.106;12.008;2023-06-19T10:53:30;21.00;78.80
58519;DHT22;44310;48.106;12.008;2023-06-19T10:56:02;21.00;79.20
58519;DHT22;44310;48.106;12.008;2023-06-19T10:58:29;20.90;78.70
58519;DHT22;44310;48.106;12.008;2023-06-19T11:00:56;20.90;79.00
58519;DHT22;44310;48.106;12.008;2023-06-19T11:03:24;20.90;79.40
58519;DHT22;44310;48.106;12.008;2023-06-19T11:05:51;20.90;79.20
58519;DHT22;44310;48.106;12.008;2023-06-19T11:08:20;20.80;79.20
58519;DHT22;44310;48.106;12.008;2023-06-19T11:10:48;20.90;79.40
58519;DHT22;44310;48.106;12.008;2023-06-19T11:13:18;20.80;79.30
58519;DHT22;44310;48.106;12.008;2023-06-19T11:15:47;21.00;79.30
58519;DHT22;44310;48.106;12.008;2023-06-19T11:18:17;20.80;79.30
58519;DHT22;44310;48.106;12.008;2023-06-19T11:20:49;20.90;79.60
58519;DHT22;44310;48.106;12.008;2023-06-19T11:23:26;20.90;79.80
58519;DHT22;44310;48.106;12.008;2023-06-19T11:25:53;20.90;79.00
58519;DHT22;44310;48.106;12.008;2023-06-19T11:28:20;21.00;78.80
58519;DHT22;44310;48.106;12.008;2023-06-19T11:31:01;21.20;78.60
58519;DHT22;44310;48.106;12.008;2023-06-19T11:33:31;21.00;78.40
58519;DHT22;44310;48.106;12.008;2023-06-19T11:36:01;21.00;78.00
58519;DHT22;44310;48.106;12.008;2023-06-19T11:38:30;21.00;78.00
58519;DHT22;44310;48.106;12.008;2023-06-19T11:40:57;21.00;78.20
58519;DHT22;44310;48.106;12.008;2023-06-19T11:43:31;21.00;78.40
58519;DHT22;44310;48.106;12.008;2023-06-19T11:46:03;21.00;78.40
58519;DHT22;44310;48.106;12.008;2023-06-19T11:48:30;20.90;78.60
58519;DHT22;44310;48.106;12.008;2023-06-19T11:50:58;20.90;78.90
58519;DHT22;44310;48.106;12.008;2023-06-19T11:53:25;20.90;79.00
58519;DHT22;44310;48.106;12.008;2023-06-19T11:55:52;20.80;78.90
58519;DHT22;44310;48.106;12.008;2023-06-19T11:58:20;20.80;79.00
58519;DHT22;44310;48.106;12.008;2023-06-19T12:00:49;20.90;79.50
58519;DHT22;44310;48.106;12.008;2023-06-19T12:03:16;20.90;79.50
58519;DHT22;44310;48.106;12.008;2023-06-19T12:05:43;20.90;79.30
58519;DHT22;44310;48.106;12.008;2023-06-19T12:08:11;20.90;79.20
58519;DHT22;44310;48.106;12.008;2023-06-19T12:10:38;20.80;79.20
58519;DHT22;44310;48.106;12.008;2023-06-19T12:13:05;20.90;79.80
58519;DHT22;44310;48.106;12.008;2023-06-19T12:15:32;21.00;79.30
58519;DHT22;44310;48.106;12.008;2023-06-19T12:18:03;21.00;78.80
58519;DHT22;44310;48.106;12.008;2023-06-19T12:20:31;21.00;78.80
58519;DHT22;44310;48.106;12.008;2023-06-19T12:22:58;21.00;78.40
58519;DHT22;44310;48.106;12.008;2023-06-19T12:25:25;21.00;78.50
58519;DHT22;44310;48.106;12.008;2023-06-19T12:27:53;20.90;78.70
58519;DHT22;44310;48.106;12.008;2023-06-19T12:30:22;20.90;78.70
58519;DHT22;44310;48.106;12.008;2023-06-19T12:32:50;20.90;78.80
58519;DHT22;44310;48.106;12.008;2023-06-19T12:35:17;20.30;78.50
58519;DHT22;44310;48.106;12.008;2023-06-19T12:37:45;20.90;79.10
58519;DHT22;44310;48.106;12.008;2023-06-19T12:40:12;20.80;79.10
58519;DHT22;44310;48.106;12.008;2023-06-19T12:42:40;20.80;79.10
58519;DHT22;44310;48.106;12.008;2023-06-19T12:45:07;20.90;79.20
58519;DHT22;44310;48.106;12.008;2023-06-19T12:47:36;20.80;79.20
58519;DHT22;44310;48.106;12.008;2023-06-19T12:50:03;20.80;79.30
58519;DHT22;44310;48.106;12.008;2023-06-19T12:52:30;20.70;79.20
58519;DHT22;44310;48.106;12.008;2023-06-19T12:54:58;20.60;79.20
58519;DHT22;44310;48.106;12.008;2023-06-19T12:57:28;20.80;79.00
58519;DHT22;44310;48.106;12.008;2023-06-19T12:59:55;20.80;79.00
58519;DHT22;44310;48.106;12.008;2023-06-19T13:02:22;20.80;78.80
58519;DHT22;44310;48.106;12.008;2023-06-19T13:04:50;21.10;78.90
58519;DHT22;44310;48.106;12.008;2023-06-19T13:07:17;20.80;78.90
58519;DHT22;44310;48.106;12.008;2023-06-19T13:09:44;20.90;79.10
58519;DHT22;44310;48.106;12.008;2023-06-19T13:12:11;20.90;78.90
58519;DHT22;44310;48.106;12.008;2023-06-19T13:14:38;20.80;78.80
58519;DHT22;44310;48.106;12.008;2023-06-19T13:17:05;20.90;78.80
58519;DHT22;44310;48.106;12.008;2023-06-19T13:19:34;20.90;78.70
58519;DHT22;44310;48.106;12.008;2023-06-19T13:22:01;20.90;78.40
58519;DHT22;44310;48.106;12.008;2023-06-19T13:24:28;20.90;78.30
58519;DHT22;44310;48.106;12.008;2023-06-19T13:26:55;20.90;78.40
58519;DHT22;44310;48.106;12.008;2023-06-19T13:29:23;21.00;78.60
58519;DHT22;44310;48.106;12.008;2023-06-19T13:31:50;21.00;78.50
58519;DHT22;44310;48.106;12.008;2023-06-19T13:34:17;21.00;78.30
58519;DHT22;44310;48.106;12.008;2023-06-19T13:36:45;21.00;78.20
58519;DHT22;44310;48.106;12.008;2023-06-19T13:39:14;21.00;78.20
58519;DHT22;44310;48.106;12.008;2023-06-19T13:41:41;21.00;78.40
58519;DHT22;44310;48.106;12.008;2023-06-19T13:44:09;20.90;78.40
58519;DHT22;44310;48.106;12.008;2023-06-19T13:46:37;20.90;78.40
58519;DHT22;44310;48.106;12.008;2023-06-19T13:49:04;20.80;78.30
58519;DHT22;44310;48.106;12.008;2023-06-19T13:51:31;20.90;78.40
58519;DHT22;44310;48.106;12.008;2023-06-19T13:53:59;20.90;78.50
58519;DHT22;44310;48.106;12.008;2023-06-19T13:56:26;21.00;78.50
58519;DHT22;44310;48.106;12.008;2023-06-19T13:58:54;20.50;78.10
58519;DHT22;44310;48.106;12.008;2023-06-19T14:01:21;20.90;78.40
58519;DHT22;44310;48.106;12.008;2023-06-19T14:03:48;21.20;78.90
58519;DHT22;44310;48.106;12.008;2023-06-19T14:06:15;21.00;78.90
58519;DHT22;44310;48.106;12.008;2023-06-19T14:08:42;21.00;78.60
58519;DHT22;44310;48.106;12.008;2023-06-19T14:11:10;21.00;78.40
58519;DHT22;44310;48.106;12.008;2023-06-19T14:13:37;21.10;78.30
58519;DHT22;44310;48.106;12.008;2023-06-19T14:16:04;21.00;78.20
58519;DHT22;44310;48.106;12.008;2023-06-19T14:18:31;21.00;78.40
58519;DHT22;44310;48.106;12.008;2023-06-19T14:20:58;21.00;78.60
58519;DHT22;44310;48.106;12.008;2023-06-19T14:23:26;21.00;78.50
58519;DHT22;44310;48.106;12.008;2023-06-19T14:25:53;21.70;78.70
58519;DHT22;44310;48.106;12.008;2023-06-19T14:28:20;21.00;78.20
58519;DHT22;44310;48.106;12.008;2023-06-19T14:30:47;21.00;78.40
58519;DHT22;44310;48.106;12.008;2023-06-19T14:33:14;21.00;78.50
58519;DHT22;44310;48.106;12.008;2023-06-19T14:35:42;21.00;78.50
58519;DHT22;44310;48.106;12.008;2023-06-19T14:38:13;21.00;78.40
58519;DHT22;44310;48.106;12.008;2023-06-19T14:40:44;21.00;78.40
58519;DHT22;44310;48.106;12.008;2023-06-19T14:43:11;21.00;78.50
58519;DHT22;44310;48.106;12.008;2023-06-19T14:45:38;21.00;78.40
58519;DHT22;44310;48.106;12.008;2023-06-19T14:48:07;21.00;78.60
58519;DHT22;44310;48.106;12.008;2023-06-19T14:50:34;21.00;78.50
58519;DHT22;44310;48.106;12.008;2023-06-19T14:53:02;21.00;78.60
58519;DHT22;44310;48.106;12.008;2023-06-19T14:55:29;21.00;78.60
58519;DHT22;44310;48.106;12.008;2023-06-19T14:57:57;20.90;78.60
58519;DHT22;44310;48.106;12.008;2023-06-19T15:00:24;20.90;78.60
58519;DHT22;44310;48.106;12.008;2023-06-19T15:02:51;20.90;78.80
58519;DHT22;44310;48.106;12.008;2023-06-19T15:05:19;20.90;78.80
58519;DHT22;44310;48.106;12.008;2023-06-19T15:07:46;20.90;78.90
58519;DHT22;44310;48.106;12.008;2023-06-19T15:10:13;20.90;79.00
58519;DHT22;44310;48.106;12.008;2023-06-19T15:12:40;21.00;79.00
58519;DHT22;44310;48.106;12.008;2023-06-19T15:15:08;20.90;78.90
58519;DHT22;44310;48.106;12.008;2023-06-19T15:17:35;20.90;78.90
58519;DHT22;44310;48.106;12.008;2023-06-19T15:20:04;20.90;78.90
58519;DHT22;44310;48.106;12.008;2023-06-19T15:22:31;20.80;78.90
58519;DHT22;44310;48.106;12.008;2023-06-19T15:24:58;20.30;78.60
58519;DHT22;44310;48.106;12.008;2023-06-19T15:27:25;20.90;78.80